CZ-0068 weather

Dobšice Heliport
Central Bohemian Region, Czechia

Public forecast

Using degrees Celsius for public forecast. Weather courtesy of forecast.io.

METAR (pilot weather report)

Closest report is Čáslav Air Base, 11.5 nm (21.3 km) SSE. Retrieved 2019/05/23 12:00 UTC (52 minutes ago):

LKCV 231200Z 30011KT CAVOK 12/07 Q1018 NOSIG RMK BLU BLU

TAF (pilot weather forecast)

Closest forecast is Čáslav Air Base, 11.5 nm (21.3 km) SSE. Retrieved 2019/05/23 12:05 UTC (47 minutes ago):

TAF LKCV 231100Z 2312/2412 30012KT 9999 SCT030 BKN050 BECMG 2314/2316 CAVOK BECMG 2319/2321 27006KT